Time;durP1;ratioP1;P1;durP2;ratioP2;P2;SDS_P1;SDS_P2;PMS_P1;PMS_P2;Temp;Humidity;BMP_temperature;BMP_pressure;BME280_temperature;BME280_humidity;BME280_pressure;Samples;Min_cycle;Max_cycle;Signal;HPM_P1;HPM_P2
2022/04/23 00:00:33;;;;;;;42.88;18.85;;;11.20;99.90;;;;;;5093913;28;20036;-64
2022/04/23 00:02:59;;;;;;;40.63;19.27;;;11.20;99.90;;;;;;5076535;28;20342;-64
2022/04/23 00:05:26;;;;;;;36.42;18.10;;;11.20;99.90;;;;;;5073862;28;20038;-64
2022/04/23 00:07:53;;;;;;;35.28;18.50;;;11.10;99.90;;;;;;5073825;28;20424;-64
2022/04/23 00:10:20;;;;;;;33.60;18.80;;;11.10;99.90;;;;;;5094001;28;20035;-64
2022/04/23 00:12:47;;;;;;;35.00;19.40;;;11.10;99.90;;;;;;5097671;28;20020;-64
2022/04/23 00:15:13;;;;;;;38.28;18.67;;;11.10;99.90;;;;;;5097718;28;20450;-64
2022/04/23 00:17:39;;;;;;;40.85;18.98;;;11.10;99.90;;;;;;5097977;28;20035;-64
2022/04/23 00:20:06;;;;;;;84.00;39.38;;;11.00;99.90;;;;;;5097676;28;20378;-64
2022/04/23 00:22:35;;;;;;;101.40;47.10;;;11.10;99.90;;;;;;5097704;28;20024;-64
2022/04/23 00:25:01;;;;;;;62.63;31.10;;;11.00;99.90;;;;;;5097634;28;20024;-64
2022/04/23 00:27:27;;;;;;;57.25;25.15;;;11.00;99.90;;;;;;5097503;28;20024;-64
2022/04/23 00:29:53;;;;;;;47.90;24.45;;;11.00;99.90;;;;;;5097589;28;20028;-64
2022/04/23 00:32:18;;;;;;;38.22;20.40;;;11.00;99.90;;;;;;5097860;28;20033;-64
2022/04/23 00:34:44;;;;;;;39.97;20.83;;;11.00;99.90;;;;;;5097484;28;20032;-64
2022/04/23 00:37:10;;;;;;;72.15;33.60;;;11.00;99.90;;;;;;5097558;28;20028;-64
2022/04/23 00:39:36;;;;;;;103.00;37.65;;;11.00;99.90;;;;;;5097555;28;20363;-64
2022/04/23 00:42:08;;;;;;;74.95;30.50;;;11.00;99.90;;;;;;5097311;28;20105;-64
2022/04/23 00:44:35;;;;;;;77.90;31.25;;;11.00;99.90;;;;;;5097267;28;20390;-64
2022/04/23 00:47:02;;;;;;;67.10;27.67;;;10.90;99.90;;;;;;5097267;28;20024;-64
2022/04/23 00:49:28;;;;;;;62.92;28.02;;;11.00;99.90;;;;;;5096991;28;20020;-64
2022/04/23 00:51:54;;;;;;;61.65;27.38;;;11.00;99.90;;;;;;5097146;28;20180;-64
2022/04/23 00:54:22;;;;;;;47.92;25.17;;;10.90;99.90;;;;;;5097476;28;20024;-62
2022/04/23 00:56:48;;;;;;;49.40;25.05;;;10.90;99.90;;;;;;5096945;28;20055;-62
2022/04/23 00:59:14;;;;;;;47.13;23.25;;;10.80;99.90;;;;;;5096999;28;20056;-62
2022/04/23 01:01:42;;;;;;;44.72;22.48;;;10.80;99.90;;;;;;5090449;28;20028;-62
2022/04/23 01:04:12;;;;;;;41.55;22.88;;;10.70;99.90;;;;;;5076413;28;20037;-62
2022/04/23 01:06:39;;;;;;;41.10;22.33;;;10.60;99.90;;;;;;5076639;28;20443;-62
2022/04/23 01:09:08;;;;;;;39.00;21.88;;;10.50;99.90;;;;;;5082319;28;20048;-62
2022/04/23 01:11:38;;;;;;;36.90;20.88;;;10.50;99.90;;;;;;5096872;28;20291;-62
2022/04/23 01:14:04;;;;;;;35.92;20.45;;;10.50;99.90;;;;;;5096793;28;20027;-62
2022/04/23 01:16:30;;;;;;;36.20;21.10;;;10.50;99.90;;;;;;5096727;28;20032;-62
2022/04/23 01:18:56;;;;;;;45.03;22.20;;;10.50;99.90;;;;;;5096502;28;20032;-62
2022/04/23 01:21:23;;;;;;;39.65;21.58;;;10.50;99.90;;;;;;5095911;28;20071;-62
2022/04/23 01:23:53;;;;;;;38.33;21.55;;;10.60;99.90;;;;;;5096511;28;20028;-62
2022/04/23 01:26:28;;;;;;;40.88;21.88;;;10.50;99.90;;;;;;5096519;28;20111;-62
2022/04/23 01:28:55;;;;;;;41.20;22.50;;;10.50;99.90;;;;;;5096469;28;20043;-62
2022/04/23 01:31:21;;;;;;;44.22;23.20;;;10.50;99.90;;;;;;5096379;28;20020;-62
2022/04/23 01:33:47;;;;;;;42.92;22.05;;;10.50;99.90;;;;;;5096474;28;20043;-62
2022/04/23 01:36:16;;;;;;;44.00;24.25;;;10.40;99.90;;;;;;5096146;28;20024;-62
2022/04/23 01:38:43;;;;;;;37.70;22.08;;;10.40;99.90;;;;;;5096281;28;20039;-62
2022/04/23 01:41:09;;;;;;;42.03;23.17;;;10.40;99.90;;;;;;5096202;28;20069;-62
2022/04/23 01:43:35;;;;;;;40.85;23.30;;;10.40;99.90;;;;;;5096163;28;20024;-62
2022/04/23 01:46:01;;;;;;;50.42;25.13;;;10.40;99.90;;;;;;5095973;28;20032;-62
2022/04/23 01:48:27;;;;;;;47.95;24.80;;;10.30;99.90;;;;;;5095978;28;20035;-62
2022/04/23 01:50:55;;;;;;;44.33;23.88;;;10.30;99.90;;;;;;5095865;28;20455;-62
2022/04/23 01:53:22;;;;;;;44.50;23.48;;;10.30;99.90;;;;;;5095976;28;20024;-62
2022/04/23 01:55:55;;;;;;;41.78;24.13;;;10.20;99.90;;;;;;5095904;28;20032;-62
2022/04/23 01:58:21;;;;;;;31.02;19.52;;;10.20;99.90;;;;;;5095867;28;20363;-62
2022/04/23 02:00:48;;;;;;;32.85;18.95;;;10.20;99.90;;;;;;5095800;28;20072;-62
2022/04/23 02:03:14;;;;;;;36.40;21.13;;;10.10;99.90;;;;;;5076009;28;20033;-62
2022/04/23 02:05:40;;;;;;;40.03;21.15;;;10.10;99.90;;;;;;5075355;28;20051;-61
2022/04/23 02:08:09;;;;;;;42.80;22.63;;;10.00;99.90;;;;;;5075328;28;20482;-62
2022/04/23 02:10:35;;;;;;;50.85;27.00;;;9.90;99.90;;;;;;5093828;28;20097;-62
2022/04/23 02:13:01;;;;;;;55.80;30.05;;;9.90;99.90;;;;;;5095492;28;20047;-62
2022/04/23 02:15:27;;;;;;;53.15;28.70;;;9.80;99.90;;;;;;5095420;28;20028;-62
2022/04/23 02:17:52;;;;;;;59.25;31.23;;;9.80;99.90;;;;;;5095525;28;20039;-62
2022/04/23 02:20:18;;;;;;;59.28;33.08;;;9.80;99.90;;;;;;5095672;28;20036;-62
2022/04/23 02:22:45;;;;;;;58.58;32.30;;;9.80;99.90;;;;;;5095405;28;20032;-62
2022/04/23 02:25:11;;;;;;;50.22;28.70;;;9.70;99.90;;;;;;5095267;28;20619;-62
2022/04/23 02:27:42;;;;;;;39.67;25.33;;;9.60;99.90;;;;;;5095417;28;20081;-62
2022/04/23 02:30:08;;;;;;;;;;;9.70;99.90;;;;;;5095630;28;20073;-62
2022/04/23 02:32:34;;;;;;;44.72;23.45;;;9.70;99.90;;;;;;5094421;28;19908;-62
2022/04/23 02:35:00;;;;;;;38.38;21.90;;;9.60;99.90;;;;;;5095313;28;20046;-62
2022/04/23 02:37:27;;;;;;;36.55;21.75;;;9.70;99.90;;;;;;5094985;28;20020;-62
2022/04/23 02:39:53;;;;;;;36.35;22.77;;;9.70;99.90;;;;;;5095117;28;20020;-62
2022/04/23 02:42:19;;;;;;;42.65;23.67;;;9.60;99.90;;;;;;5095348;28;20095;-62
2022/04/23 02:44:45;;;;;;;41.03;24.05;;;9.60;99.90;;;;;;5095011;28;20057;-62
2022/04/23 02:47:11;;;;;;;41.80;22.98;;;9.50;99.90;;;;;;5094901;28;20036;-62
2022/04/23 02:49:37;;;;;;;31.80;19.38;;;9.40;99.90;;;;;;5094904;28;20043;-62
2022/04/23 02:52:04;;;;;;;39.22;21.77;;;9.30;99.90;;;;;;5094884;28;20024;-62
2022/04/23 02:54:30;;;;;;;42.42;24.75;;;9.30;99.90;;;;;;5095067;28;20032;-62
2022/04/23 02:56:55;;;;;;;45.08;28.85;;;9.30;99.90;;;;;;5094986;28;20054;-62
2022/04/23 02:59:21;;;;;;;53.58;29.35;;;9.30;99.90;;;;;;5094880;28;20308;-62
2022/04/23 03:01:48;;;;;;;54.63;31.23;;;9.30;99.90;;;;;;5087238;28;20475;-62
2022/04/23 03:04:15;;;;;;;56.88;32.03;;;9.30;99.90;;;;;;5074556;28;20032;-62
2022/04/23 03:06:41;;;;;;;54.60;31.55;;;9.30;99.90;;;;;;5074593;28;20036;-62
2022/04/23 03:09:07;;;;;;;48.58;28.40;;;9.30;99.90;;;;;;5080818;28;20020;-62
2022/04/23 03:11:33;;;;;;;55.38;30.77;;;9.30;99.90;;;;;;5094663;28;20016;-62
2022/04/23 03:13:59;;;;;;;51.22;30.10;;;9.30;99.90;;;;;;5094574;28;20028;-62
2022/04/23 03:16:29;;;;;;;60.80;35.00;;;9.30;99.90;;;;;;5094558;28;20468;-62
2022/04/23 03:18:56;;;;;;;64.47;36.42;;;9.30;99.90;;;;;;5094521;28;20490;-62
2022/04/23 03:21:22;;;;;;;67.10;37.55;;;9.40;99.90;;;;;;5094327;28;20051;-62
2022/04/23 03:23:48;;;;;;;56.42;31.88;;;9.40;99.90;;;;;;5094519;28;20024;-62
2022/04/23 03:26:14;;;;;;;54.85;29.17;;;9.30;99.90;;;;;;5094403;28;20071;-62
2022/04/23 03:28:41;;;;;;;59.85;33.20;;;9.40;99.90;;;;;;5094427;28;20485;-62
2022/04/23 03:31:08;;;;;;;46.83;29.05;;;9.40;99.90;;;;;;5094540;28;20032;-62
2022/04/23 03:33:34;;;;;;;57.65;31.48;;;9.40;99.90;;;;;;5094490;28;20024;-62
2022/04/23 03:36:01;;;;;;;52.88;30.40;;;9.30;99.90;;;;;;5094414;28;20057;-62
2022/04/23 03:38:27;;;;;;;66.10;36.90;;;9.30;99.90;;;;;;5094369;28;20062;-62
2022/04/23 03:40:56;;;;;;;78.30;43.08;;;9.30;99.90;;;;;;5094382;28;20032;-62
2022/04/23 03:43:25;;;;;;;64.43;38.35;;;9.30;99.90;;;;;;5095212;28;20081;-62
2022/04/23 03:45:53;;;;;;;67.10;36.90;;;9.40;99.90;;;;;;5098548;28;20107;-62
2022/04/23 03:48:19;;;;;;;56.90;34.40;;;9.30;99.90;;;;;;5098302;28;20047;-62
2022/04/23 03:50:47;;;;;;;60.17;36.45;;;9.40;99.90;;;;;;5098365;28;20481;-62
2022/04/23 03:53:13;;;;;;;74.80;41.97;;;9.30;99.90;;;;;;5098332;28;20050;-62
2022/04/23 03:55:39;;;;;;;68.85;37.67;;;9.30;99.90;;;;;;5098207;28;20028;-62
2022/04/23 03:58:05;;;;;;;62.25;34.78;;;9.30;99.90;;;;;;5098126;28;20104;-62
2022/04/23 04:00:31;;;;;;;63.42;33.42;;;9.30;99.90;;;;;;5098220;28;20032;-62
2022/04/23 04:02:57;;;;;;;53.20;31.95;;;9.30;99.90;;;;;;5080655;28;20490;-62
2022/04/23 04:05:28;;;;;;;58.55;34.40;;;9.30;99.90;;;;;;5077698;28;20127;-62
2022/04/23 04:07:54;;;;;;;59.67;35.30;;;9.30;99.90;;;;;;5077734;28;20050;-62
2022/04/23 04:10:21;;;;;;;57.08;32.28;;;9.30;99.90;;;;;;5093900;28;20229;-62
2022/04/23 04:12:48;;;;;;;64.47;34.30;;;9.30;99.90;;;;;;5098001;28;20125;-62
2022/04/23 04:15:15;;;;;;;50.45;30.58;;;9.30;99.90;;;;;;5097931;28;20024;-62
2022/04/23 04:17:42;;;;;;;68.43;37.28;;;9.30;99.90;;;;;;5097762;28;20039;-62
2022/04/23 04:20:11;;;;;;;66.22;36.83;;;9.30;99.90;;;;;;5097692;28;20121;-63
2022/04/23 04:22:38;;;;;;;60.53;34.20;;;9.30;99.90;;;;;;5097990;28;20026;-62
2022/04/23 04:25:05;;;;;;;68.30;34.63;;;9.40;99.90;;;;;;5097476;28;20024;-63
2022/04/23 04:27:33;;;;;;;67.80;34.80;;;9.50;99.90;;;;;;5098096;28;20028;-63
2022/04/23 04:30:00;;;;;;;72.32;32.90;;;9.60;99.90;;;;;;5097591;28;20055;-62
2022/04/23 04:32:26;;;;;;;66.88;31.73;;;9.70;99.90;;;;;;5097467;28;20038;-62
2022/04/23 04:34:52;;;;;;;59.35;30.10;;;9.70;99.90;;;;;;5097594;28;20074;-63
2022/04/23 04:37:18;;;;;;;63.53;31.33;;;9.80;99.90;;;;;;5097360;28;20028;-63
2022/04/23 04:39:44;;;;;;;60.63;31.58;;;9.80;99.90;;;;;;5097575;28;20474;-62
2022/04/23 04:42:11;;;;;;;57.53;30.17;;;9.80;99.90;;;;;;5097368;28;20028;-62
2022/04/23 04:44:38;;;;;;;59.42;29.08;;;9.80;99.90;;;;;;5097261;28;20020;-62
2022/04/23 04:47:09;;;;;;;;;;;9.80;99.90;;;;;;5097660;28;20032;-62
2022/04/23 04:49:36;;;;;;;55.17;29.35;;;9.70;99.90;;;;;;5097156;28;19907;-63
2022/04/23 04:52:02;;;;;;;57.72;30.30;;;9.80;99.90;;;;;;5097164;28;20099;-63
2022/04/23 04:54:28;;;;;;;53.17;30.15;;;9.80;99.90;;;;;;5097154;28;20028;-63
2022/04/23 04:56:56;;;;;;;72.28;35.67;;;9.90;99.90;;;;;;5096621;28;20035;-62
2022/04/23 04:59:23;;;;;;;68.13;32.65;;;9.90;99.90;;;;;;5096996;28;20020;-63
2022/04/23 05:01:53;;;;;;;74.15;35.53;;;9.90;99.90;;;;;;5089579;28;20385;-63
2022/04/23 05:04:20;;;;;;;65.93;32.80;;;10.00;99.90;;;;;;5077055;28;20024;-63
2022/04/23 05:06:46;;;;;;;65.22;33.60;;;10.10;99.90;;;;;;5076428;28;20032;-63
2022/04/23 05:09:12;;;;;;;70.10;34.88;;;10.30;99.90;;;;;;5083409;28;20031;-63
2022/04/23 05:11:38;;;;;;;73.13;38.33;;;10.40;99.90;;;;;;5096721;28;20031;-63
2022/04/23 05:14:04;;;;;;;88.30;42.22;;;10.50;99.90;;;;;;5096530;28;20024;-63
2022/04/23 05:16:30;;;;;;;90.03;43.97;;;10.60;99.90;;;;;;5096769;28;20034;-63
2022/04/23 05:18:57;;;;;;;77.25;39.92;;;10.80;99.90;;;;;;5096625;28;20112;-63
2022/04/23 05:21:22;;;;;;;68.95;36.10;;;10.90;99.90;;;;;;5096332;28;20039;-63
2022/04/23 05:23:48;;;;;;;69.88;35.45;;;11.00;99.90;;;;;;5096597;28;20390;-63
2022/04/23 05:26:14;;;;;;;70.75;38.63;;;11.10;99.90;;;;;;5096428;28;20095;-63
2022/04/23 05:28:41;;;;;;;64.47;33.75;;;11.20;99.90;;;;;;5096377;28;20115;-63
2022/04/23 05:31:08;;;;;;;57.03;31.40;;;11.20;99.90;;;;;;5096503;28;20474;-63
2022/04/23 05:33:35;;;;;;;78.93;38.63;;;11.20;99.90;;;;;;5096372;28;20035;-63
2022/04/23 05:36:01;;;;;;;72.63;39.65;;;11.30;99.90;;;;;;5096238;28;20028;-63
2022/04/23 05:38:28;;;;;;;76.25;40.17;;;11.30;99.90;;;;;;5096363;28;20024;-63
2022/04/23 05:40:53;;;;;;;81.57;40.33;;;11.30;99.90;;;;;;5096213;28;20104;-63
2022/04/23 05:43:20;;;;;;;78.25;38.83;;;11.30;99.90;;;;;;5096116;28;20035;-63
2022/04/23 05:45:46;;;;;;;74.05;40.22;;;11.30;99.90;;;;;;5096643;28;20054;-63
2022/04/23 05:48:12;;;;;;;64.63;35.00;;;11.40;99.90;;;;;;5095941;28;20028;-63
2022/04/23 05:50:38;;;;;;;63.30;36.60;;;11.50;99.90;;;;;;5096041;28;20016;-63
2022/04/23 05:53:04;;;;;;;69.90;36.75;;;11.60;99.90;;;;;;5096324;28;20034;-63
2022/04/23 05:55:30;;;;;;;64.97;34.47;;;11.70;99.90;;;;;;5096001;28;20035;-63
2022/04/23 05:57:56;;;;;;;67.43;36.88;;;11.70;99.90;;;;;;5095835;28;20362;-63
2022/04/23 06:00:22;;;;;;;66.70;34.13;;;11.80;99.90;;;;;;5095889;28;20025;-63
2022/04/23 06:02:48;;;;;;;52.13;29.50;;;11.90;99.90;;;;;;5079797;28;20028;-63
2022/04/23 06:05:14;;;;;;;51.50;27.23;;;12.10;99.90;;;;;;5075401;28;20501;-63
2022/04/23 06:07:40;;;;;;;54.17;29.08;;;12.00;99.90;;;;;;5075334;28;20497;-63
2022/04/23 06:10:06;;;;;;;53.65;29.10;;;12.10;99.90;;;;;;5089632;28;20024;-63
2022/04/23 06:12:34;;;;;;;51.67;30.42;;;12.20;99.90;;;;;;5095539;28;20432;-63
2022/04/23 06:15:00;;;;;;;57.80;31.30;;;12.20;99.90;;;;;;5095539;28;20032;-63
2022/04/23 06:17:27;;;;;;;55.17;30.45;;;12.10;99.90;;;;;;5095438;28;20028;-63
2022/04/23 06:19:55;;;;;;;50.63;30.02;;;12.20;99.90;;;;;;5095376;28;20032;-63
2022/04/23 06:22:22;;;;;;;53.15;29.77;;;12.30;99.90;;;;;;5095429;28;20093;-63
2022/04/23 06:24:49;;;;;;;53.30;27.95;;;12.40;99.90;;;;;;5095262;28;20035;-63
2022/04/23 06:27:15;;;;;;;55.22;30.40;;;12.50;99.90;;;;;;5095420;28;20122;-63
2022/04/23 06:29:41;;;;;;;52.67;29.98;;;12.50;99.90;;;;;;5095316;28;20020;-63
2022/04/23 06:32:09;;;;;;;67.03;31.75;;;12.50;99.90;;;;;;5095082;28;20485;-63
2022/04/23 06:34:35;;;;;;;61.47;30.98;;;12.60;99.90;;;;;;5095258;28;20016;-63
2022/04/23 06:37:01;;;;;;;72.20;34.30;;;12.70;99.90;;;;;;5095039;28;20626;-63
2022/04/23 06:39:27;;;;;;;60.33;31.98;;;12.80;99.90;;;;;;5094991;28;20016;-63
2022/04/23 06:41:54;;;;;;;54.63;30.45;;;13.00;99.90;;;;;;5095191;28;20024;-63
2022/04/23 06:44:20;;;;;;;77.72;33.17;;;13.00;99.90;;;;;;5095098;28;20039;-63
2022/04/23 06:46:46;;;;;;;54.50;29.60;;;13.10;99.90;;;;;;5094912;28;20035;-63
2022/04/23 06:49:12;;;;;;;67.50;32.35;;;13.10;99.90;;;;;;5094965;28;20032;-63
2022/04/23 06:51:38;;;;;;;66.88;34.40;;;13.30;99.90;;;;;;5094938;28;20038;-63
2022/04/23 06:54:04;;;;;;;63.00;32.20;;;13.50;99.90;;;;;;5094800;28;20081;-63
2022/04/23 06:56:31;;;;;;;66.18;33.10;;;13.60;99.90;;;;;;5095025;28;20036;-63
2022/04/23 06:58:57;;;;;;;64.38;32.42;;;13.70;99.90;;;;;;5094771;28;20024;-64
2022/04/23 07:01:23;;;;;;;73.93;34.33;;;13.90;99.90;;;;;;5090606;28;20032;-63
2022/04/23 07:03:49;;;;;;;75.57;39.08;;;14.10;99.90;;;;;;5074542;28;20031;-63
2022/04/23 07:06:18;;;;;;;74.30;39.00;;;14.10;99.90;;;;;;5074468;28;20040;-63
2022/04/23 07:08:44;;;;;;;73.22;38.92;;;14.10;99.90;;;;;;5077286;28;20458;-63
2022/04/23 07:11:11;;;;;;;88.03;41.65;;;14.30;99.90;;;;;;5094552;28;20031;-63
2022/04/23 07:13:38;;;;;;;91.47;44.80;;;14.10;99.90;;;;;;5094383;28;20035;-63
2022/04/23 07:16:05;;;;;;;86.25;40.65;;;14.30;99.90;;;;;;5094617;28;20024;-63
2022/04/23 07:18:32;;;;;;;72.10;35.95;;;14.60;99.90;;;;;;5094238;28;20028;-63
2022/04/23 07:20:58;;;;;;;80.32;40.08;;;14.80;99.90;;;;;;5094341;28;20176;-63
2022/04/23 07:26:11;;;;;;;97.80;45.33;;;15.30;99.90;;;;;;5094427;28;20028;-63
2022/04/23 07:28:37;;;;;;;89.68;45.03;;;15.60;99.90;;;;;;5094536;28;20032;-63
2022/04/23 07:31:05;;;;;;;89.82;46.30;;;16.00;99.90;;;;;;5094597;28;20020;-63
2022/04/23 07:39:00;;;;;;;91.55;44.55;;;17.00;99.90;;;;;;5094686;28;20043;-63
2022/04/23 07:41:29;;;;;;;92.00;44.75;;;17.10;99.90;;;;;;5094283;28;20106;-64
2022/04/23 07:43:57;;;;;;;104.80;47.58;;;16.90;99.90;;;;;;5094362;28;20081;-63
2022/04/23 07:46:24;;;;;;;95.45;49.90;;;17.10;99.90;;;;;;5094297;28;20032;-63
2022/04/23 07:48:50;;;;;;;95.60;49.25;;;17.00;99.90;;;;;;5094342;28;20032;-63
2022/04/23 07:51:17;;;;;;;103.43;51.47;;;17.20;99.90;;;;;;5094146;28;20028;-63
2022/04/23 07:53:43;;;;;;;101.65;47.53;;;17.80;99.90;;;;;;5094335;28;20033;-63
2022/04/23 07:56:09;;;;;;;104.88;47.58;;;18.00;99.90;;;;;;5094306;28;20028;-63
2022/04/23 07:58:35;;;;;;;93.18;45.85;;;18.20;99.90;;;;;;5076128;28;20028;-63
2022/04/23 08:01:02;;;;;;;99.75;47.10;;;17.80;99.90;;;;;;5093000;28;20107;-63
2022/04/23 08:03:28;;;;;;;93.80;46.53;;;17.50;99.90;;;;;;5073683;28;20166;-63
2022/04/23 08:05:54;;;;;;;92.38;46.35;;;18.00;99.90;;;;;;5073812;28;20050;-63
2022/04/23 08:08:23;;;;;;;98.05;49.60;;;18.20;99.90;;;;;;5074264;28;20024;-63
2022/04/23 08:10:49;;;;;;;94.32;46.75;;;18.20;99.90;;;;;;5053819;28;20474;-65
2022/04/23 08:13:16;;;;;;;83.20;40.00;;;18.50;99.90;;;;;;5053688;28;20041;-65
2022/04/23 08:15:42;;;;;;;87.20;44.38;;;18.60;99.90;;;;;;5053718;28;20036;-64
2022/04/23 08:18:08;;;;;;;97.70;44.22;;;19.00;99.90;;;;;;5053621;28;20021;-64
2022/04/23 08:20:34;;;;;;;79.47;38.47;;;18.80;99.90;;;;;;5053696;28;20084;-64
2022/04/23 08:23:00;;;;;;;87.13;39.35;;;18.80;99.90;;;;;;5053802;28;20089;-64
2022/04/23 08:25:26;;;;;;;93.35;44.13;;;19.00;99.90;;;;;;5053590;28;20040;-64
2022/04/23 08:27:53;;;;;;;86.57;41.30;;;19.10;99.90;;;;;;5053639;28;20022;-64
2022/04/23 08:30:36;;;;;;;78.65;38.83;;;19.30;99.90;;;;;;5054390;28;20032;-64
2022/04/23 08:33:06;;;;;;;91.38;38.58;;;19.60;99.90;;;;;;5057076;28;20104;-64
2022/04/23 08:35:34;;;;;;;82.22;36.13;;;19.80;99.90;;;;;;5057165;28;20415;-64
2022/04/23 08:38:00;;;;;;;82.82;39.35;;;20.00;99.90;;;;;;5057197;28;20028;-64
2022/04/23 08:40:30;;;;;;;75.50;36.72;;;20.20;99.90;;;;;;5056956;28;20029;-64
2022/04/23 08:42:57;;;;;;;74.90;34.20;;;20.20;99.30;;;;;;5056944;28;20165;-64
2022/04/23 08:45:24;;;;;;;84.90;35.38;;;20.50;99.90;;;;;;5056829;28;20052;-64
2022/04/23 08:47:51;;;;;;;80.38;35.70;;;20.90;99.90;;;;;;5056933;28;20052;-64
2022/04/23 08:50:20;;;;;;;77.32;35.38;;;21.40;97.20;;;;;;5057367;28;20021;-64
2022/04/23 08:52:57;;;;;;;81.50;34.90;;;21.00;96.90;;;;;;5056898;28;20021;-63
2022/04/23 08:55:26;;;;;;;75.97;34.45;;;21.00;97.20;;;;;;5055545;28;20025;-63
2022/04/23 08:57:52;;;;;;;65.25;27.70;;;21.10;97.20;;;;;;5056739;28;20021;-63
2022/04/23 09:00:18;;;;;;;60.17;25.08;;;21.20;94.80;;;;;;5056570;28;20378;-63
2022/04/23 09:02:44;;;;;;;75.95;32.70;;;21.70;94.20;;;;;;5071541;28;20026;-63
2022/04/23 09:05:14;;;;;;;73.50;28.25;;;21.80;96.00;;;;;;5076904;28;20028;-63
2022/04/23 09:07:51;;;;;;;64.70;20.88;;;22.30;92.60;;;;;;5076453;28;20039;-63
2022/04/23 09:10:17;;;;;;;37.55;14.07;;;22.00;93.30;;;;;;5092452;28;20024;-63
2022/04/23 09:12:59;;;;;;;49.25;16.50;;;22.00;78.50;;;;;;5096772;28;20035;-62
2022/04/23 09:24:09;;;;;;;31.15;11.73;;;21.90;77.80;;;;;;5096238;28;20497;-62
2022/04/23 09:26:35;;;;;;;74.72;14.65;;;22.30;89.00;;;;;;5096983;28;20043;-60
2022/04/23 09:29:22;;;;;;;23.38;9.70;;;22.90;76.80;;;;;;5096436;28;20462;-58
2022/04/23 09:32:06;;;;;;;21.08;8.30;;;23.50;71.40;;;;;;5096501;28;20470;-58
2022/04/23 09:34:32;;;;;;;18.33;7.95;;;23.30;69.50;;;;;;5096467;28;20044;-58
2022/04/23 09:37:00;;;;;;;17.05;6.57;;;23.30;64.10;;;;;;5096178;28;20378;-58
2022/04/23 09:39:38;;;;;;;15.88;6.68;;;24.00;59.00;;;;;;5096367;28;20473;-57
2022/04/23 09:42:14;;;;;;;14.77;3.47;;;23.90;60.80;;;;;;5095875;28;20029;-58
2022/04/23 09:44:40;;;;;;;10.10;3.40;;;23.70;56.30;;;;;;5096046;28;20107;-58
2022/04/23 09:47:06;;;;;;;8.18;3.75;;;24.00;53.10;;;;;;5096149;28;20069;-58
2022/04/23 09:49:32;;;;;;;4.85;2.20;;;24.00;56.70;;;;;;5096208;28;20482;-58
2022/04/23 09:52:07;;;;;;;8.50;2.22;;;23.60;52.40;;;;;;5095885;28;20024;-58
2022/04/23 09:54:35;;;;;;;7.05;2.63;;;23.70;56.00;;;;;;5095964;28;20210;-57
2022/04/23 09:57:01;;;;;;;5.85;2.88;;;23.70;54.60;;;;;;5095852;28;20545;-57
2022/04/23 09:59:27;;;;;;;12.55;3.83;;;24.10;53.10;;;;;;5096121;28;20445;-58
2022/04/23 10:01:58;;;;;;;9.80;4.30;;;24.50;54.80;;;;;;5087489;28;20490;-58
2022/04/23 10:04:29;;;;;;;11.27;5.68;;;24.70;52.80;;;;;;5075439;28;20382;-57
2022/04/23 10:06:56;;;;;;;12.07;4.70;;;24.40;53.20;;;;;;5075265;28;20473;-58
2022/04/23 10:09:27;;;;;;;9.75;3.65;;;24.10;56.60;;;;;;5083651;28;20069;-57
2022/04/23 10:12:02;;;;;;;10.48;5.10;;;23.30;53.30;;;;;;5095523;28;20378;-57
2022/04/23 10:14:38;;;;;;;9.52;4.75;;;22.30;60.40;;;;;;5095534;28;20040;-57
2022/04/23 10:17:06;;;;;;;13.07;6.10;;;22.10;61.20;;;;;;5095539;28;20042;-57
2022/04/23 10:19:33;;;;;;;16.17;4.97;;;21.90;68.60;;;;;;5095421;28;20028;-57
2022/04/23 10:22:14;;;;;;;12.13;4.13;;;21.60;64.70;;;;;;5076500;28;20036;-57
2022/04/23 10:24:58;;;;;;;13.88;4.28;;;21.80;61.60;;;;;;5057236;28;20059;-57
2022/04/23 10:27:26;;;;;;;13.88;4.72;;;21.90;61.50;;;;;;5074918;28;20059;-57
2022/04/23 10:29:56;;;;;;;9.00;4.13;;;21.90;64.80;;;;;;5075075;28;20025;-57
2022/04/23 10:32:24;;;;;;;8.85;4.50;;;21.70;63.90;;;;;;5075042;28;20024;-57
2022/04/23 10:34:50;;;;;;;21.98;8.23;;;21.30;71.10;;;;;;5074996;28;20025;-57
2022/04/23 10:37:24;;;;;;;10.05;3.75;;;20.90;72.20;;;;;;5074949;28;20112;-57
2022/04/23 10:39:53;;;;;;;11.40;4.35;;;20.90;78.90;;;;;;5074807;28;20470;-57
2022/04/23 10:42:21;;;;;;;12.50;4.82;;;20.80;78.80;;;;;;5074866;28;20048;-57
2022/04/23 10:44:49;;;;;;;16.45;4.70;;;20.80;71.60;;;;;;5074957;28;20060;-57
2022/04/23 10:47:32;;;;;;;14.45;4.25;;;20.60;72.60;;;;;;5074720;28;20033;-57
2022/04/23 10:50:18;;;;;;;10.23;3.38;;;20.70;74.60;;;;;;5074475;28;20417;-57
2022/04/23 10:52:45;;;;;;;12.55;4.22;;;20.90;71.20;;;;;;5074087;28;20025;-57
2022/04/23 10:55:12;;;;;;;9.07;4.57;;;20.90;70.80;;;;;;5074544;28;20390;-57
2022/04/23 10:57:39;;;;;;;13.13;5.63;;;20.70;68.20;;;;;;5074741;28;20028;-57
2022/04/23 11:00:11;;;;;;;7.28;3.53;;;20.50;69.00;;;;;;5074480;28;20033;-57
2022/04/23 11:02:39;;;;;;;10.77;4.75;;;20.70;72.20;;;;;;5060142;28;20036;-57
2022/04/23 11:13:55;;;;;;;19.75;6.10;;;20.70;74.40;;;;;;5034403;28;20026;-57
2022/04/23 11:16:24;;;;;;;10.00;3.83;;;20.40;71.60;;;;;;5034426;28;20468;-57
2022/04/23 11:18:51;;;;;;;11.65;4.45;;;20.40;71.80;;;;;;5034182;28;20435;-57
2022/04/23 11:21:26;;;;;;;11.27;4.90;;;20.60;82.60;;;;;;5034392;28;20107;-57
2022/04/23 11:23:56;;;;;;;19.90;4.85;;;20.50;66.90;;;;;;5034240;28;20447;-57
2022/04/23 11:26:44;;;;;;;11.77;3.17;;;20.70;76.00;;;;;;5034261;28;20029;-57
2022/04/23 11:29:11;;;;;;;11.32;3.70;;;21.00;71.90;;;;;;5034133;28;20033;-57
2022/04/23 11:31:37;;;;;;;14.45;4.63;;;20.90;66.00;;;;;;5034189;28;20084;-57
2022/04/23 11:34:04;;;;;;;16.98;5.15;;;21.00;74.30;;;;;;5034074;28;20056;-57
2022/04/23 11:36:33;;;;;;;17.63;4.68;;;21.20;74.90;;;;;;5033965;28;20124;-57
2022/04/23 11:39:03;;;;;;;11.55;4.40;;;21.40;80.50;;;;;;5034219;28;20033;-57
2022/04/23 11:41:39;;;;;;;10.70;4.75;;;21.50;77.20;;;;;;5034172;28;20030;-57
2022/04/23 11:44:16;;;;;;;18.73;5.20;;;21.40;67.20;;;;;;5034129;28;20033;-57
2022/04/23 11:46:50;;;;;;;13.38;4.93;;;21.20;72.60;;;;;;5033900;28;20112;-57
2022/04/23 11:49:26;;;;;;;10.27;4.75;;;21.20;72.00;;;;;;5033995;28;20025;-57
2022/04/23 11:52:04;;;;;;;21.67;6.10;;;21.50;74.80;;;;;;5034102;28;20463;-57
2022/04/23 11:54:37;;;;;;;6.95;2.78;;;21.60;71.90;;;;;;5034133;28;20056;-57
2022/04/23 11:57:05;;;;;;;14.95;4.03;;;21.40;62.00;;;;;;5033975;28;20026;-57
2022/04/23 11:59:50;;;;;;;19.33;6.47;;;21.60;73.80;;;;;;5033965;28;20084;-57
2022/04/23 12:02:18;;;;;;;10.48;4.30;;;21.40;73.90;;;;;;5044934;28;20041;-57
2022/04/23 12:04:45;;;;;;;10.98;4.97;;;21.40;74.60;;;;;;5055211;28;20033;-57
2022/04/23 12:07:12;;;;;;;12.15;5.07;;;21.20;69.50;;;;;;5057508;28;20056;-57
2022/04/23 12:09:52;;;;;;;8.65;3.80;;;21.00;74.10;;;;;;5067829;28;20518;-57
2022/04/23 12:12:20;;;;;;;11.80;5.45;;;21.00;69.00;;;;;;5077705;28;20029;-57
2022/04/23 12:14:47;;;;;;;10.75;4.00;;;20.90;73.50;;;;;;5077529;28;20107;-57
2022/04/23 12:17:26;;;;;;;8.48;3.25;;;21.10;70.60;;;;;;5077680;28;20036;-57
2022/04/23 12:20:00;;;;;;;5.35;3.22;;;21.10;73.70;;;;;;5077433;28;20028;-57
2022/04/23 12:22:28;;;;;;;11.20;3.45;;;21.30;69.90;;;;;;5077487;28;20040;-57
2022/04/23 12:25:09;;;;;;;4.78;2.95;;;21.40;73.60;;;;;;5077408;28;20082;-57
2022/04/23 12:27:59;;;;;;;6.80;3.38;;;21.40;72.80;;;;;;5077181;28;20043;-57
2022/04/23 12:42:06;;;;;;;5.25;3.42;;;21.00;74.20;;;;;;5077090;28;20040;-57
2022/04/23 12:44:42;;;;;;;8.32;3.25;;;20.90;79.30;;;;;;5077131;28;20032;-57
2022/04/23 12:47:17;;;;;;;7.35;3.85;;;21.20;76.90;;;;;;5076960;28;20028;-57
2022/04/23 12:49:48;;;;;;;11.05;3.70;;;21.20;76.70;;;;;;5076772;28;20541;-57
2022/04/23 12:52:21;;;;;;;11.57;4.43;;;21.20;73.90;;;;;;5076984;28;20501;-57
2022/04/23 12:55:09;;;;;;;5.93;2.90;;;21.20;78.00;;;;;;5076895;28;20470;-57
2022/04/23 12:57:35;;;;;;;8.07;3.20;;;21.60;85.00;;;;;;5076814;28;20024;-57
2022/04/23 13:00:01;;;;;;;16.30;4.05;;;21.80;68.40;;;;;;5076763;28;20040;-57
2022/04/23 13:02:35;;;;;;;9.75;3.20;;;22.00;72.30;;;;;;5064126;28;20037;-57
2022/04/23 13:05:02;;;;;;;6.28;3.28;;;22.50;69.90;;;;;;5056608;28;20155;-57
2022/04/23 13:10:13;;;;;;;6.60;2.58;;;22.20;60.70;;;;;;5056451;28;20036;-57
2022/04/23 13:12:39;;;;;;;6.97;2.72;;;21.80;57.50;;;;;;5076546;28;20016;-57
2022/04/23 13:15:05;;;;;;;11.25;3.40;;;21.40;58.50;;;;;;5076522;28;20024;-56
2022/04/23 13:17:31;;;;;;;6.38;2.92;;;21.10;63.90;;;;;;5075560;28;20028;-56